sensor_id;sensor_type;location;lat;lon;timestamp;pressure;altitude;pressure_sealevel;temperature;humidity
13867;BME280;7003;46.982;15.248;2023-06-26T00:01:28;97327.13;;;16.29;100.00
13867;BME280;7003;46.982;15.248;2023-06-26T00:04:00;97318.19;;;16.21;100.00
13867;BME280;7003;46.982;15.248;2023-06-26T00:06:27;97313.69;;;16.06;100.00
13867;BME280;7003;46.982;15.248;2023-06-26T00:08:55;97325.56;;;16.05;100.00
13867;BME280;7003;46.982;15.248;2023-06-26T00:11:27;97319.03;;;16.02;100.00
13867;BME280;7003;46.982;15.248;2023-06-26T00:13:56;97317.81;;;16.00;100.00
13867;BME280;7003;46.982;15.248;2023-06-26T00:16:24;97315.19;;;16.03;100.00
13867;BME280;7003;46.982;15.248;2023-06-26T00:18:54;97307.22;;;16.07;100.00
13867;BME280;7003;46.982;15.248;2023-06-26T00:21:21;97321.19;;;15.97;100.00
13867;BME280;7003;46.982;15.248;2023-06-26T00:23:48;97318.13;;;15.95;100.00
13867;BME280;7003;46.982;15.248;2023-06-26T00:26:15;97316.78;;;15.85;100.00
13867;BME280;7003;46.982;15.248;2023-06-26T00:28:42;97317.91;;;15.65;100.00
13867;BME280;7003;46.982;15.248;2023-06-26T00:31:09;97312.91;;;15.63;100.00
13867;BME280;7003;46.982;15.248;2023-06-26T00:33:38;97318.81;;;15.72;100.00
13867;BME280;7003;46.982;15.248;2023-06-26T00:36:05;97311.34;;;15.82;100.00
13867;BME280;7003;46.982;15.248;2023-06-26T00:38:32;97308.03;;;15.69;100.00
13867;BME280;7003;46.982;15.248;2023-06-26T00:41:01;97311.50;;;15.69;100.00
13867;BME280;7003;46.982;15.248;2023-06-26T00:43:30;97311.97;;;15.75;100.00
13867;BME280;7003;46.982;15.248;2023-06-26T00:46:00;97308.59;;;15.78;100.00
13867;BME280;7003;46.982;15.248;2023-06-26T00:48:30;97311.19;;;15.94;100.00
13867;BME280;7003;46.982;15.248;2023-06-26T00:51:01;97312.88;;;15.83;100.00
13867;BME280;7003;46.982;15.248;2023-06-26T00:53:28;97307.38;;;15.75;100.00
13867;BME280;7003;46.982;15.248;2023-06-26T00:56:14;97312.88;;;15.83;100.00
13867;BME280;7003;46.982;15.248;2023-06-26T00:58:42;97312.19;;;15.86;100.00
13867;BME280;7003;46.982;15.248;2023-06-26T01:01:11;97303.59;;;15.76;100.00
13867;BME280;7003;46.982;15.248;2023-06-26T01:03:44;97304.88;;;15.63;100.00
13867;BME280;7003;46.982;15.248;2023-06-26T01:06:14;97309.38;;;15.59;100.00
13867;BME280;7003;46.982;15.248;2023-06-26T01:08:43;97310.56;;;15.62;100.00
13867;BME280;7003;46.982;15.248;2023-06-26T01:11:12;97300.59;;;15.43;100.00
13867;BME280;7003;46.982;15.248;2023-06-26T01:13:41;97299.91;;;15.46;100.00
13867;BME280;7003;46.982;15.248;2023-06-26T01:16:15;97298.09;;;15.34;100.00
13867;BME280;7003;46.982;15.248;2023-06-26T01:18:48;97292.13;;;15.22;100.00
13867;BME280;7003;46.982;15.248;2023-06-26T01:21:17;97285.06;;;15.14;100.00
13867;BME280;7003;46.982;15.248;2023-06-26T01:23:54;97285.06;;;15.14;100.00
13867;BME280;7003;46.982;15.248;2023-06-26T01:26:27;97289.00;;;15.00;100.00
13867;BME280;7003;46.982;15.248;2023-06-26T01:28:57;97280.94;;;15.00;100.00
13867;BME280;7003;46.982;15.248;2023-06-26T01:31:26;97278.97;;;14.97;100.00
13867;BME280;7003;46.982;15.248;2023-06-26T01:33:57;97265.28;;;15.02;100.00
13867;BME280;7003;46.982;15.248;2023-06-26T01:36:25;97268.25;;;14.97;100.00
13867;BME280;7003;46.982;15.248;2023-06-26T01:38:52;97270.50;;;14.95;100.00
13867;BME280;7003;46.982;15.248;2023-06-26T01:41:22;97265.13;;;14.95;100.00
13867;BME280;7003;46.982;15.248;2023-06-26T01:44:08;97266.69;;;14.96;100.00
13867;BME280;7003;46.982;15.248;2023-06-26T01:46:46;97266.53;;;14.89;100.00
13867;BME280;7003;46.982;15.248;2023-06-26T01:49:24;97261.91;;;14.86;100.00
13867;BME280;7003;46.982;15.248;2023-06-26T01:51:55;97261.13;;;14.86;100.00
13867;BME280;7003;46.982;15.248;2023-06-26T01:54:26;97259.63;;;14.88;100.00
13867;BME280;7003;46.982;15.248;2023-06-26T01:57:00;97263.09;;;14.89;100.00
13867;BME280;7003;46.982;15.248;2023-06-26T01:59:31;97259.94;;;15.02;100.00
13867;BME280;7003;46.982;15.248;2023-06-26T02:02:01;97265.47;;;15.10;100.00
13867;BME280;7003;46.982;15.248;2023-06-26T02:04:28;97265.72;;;15.05;100.00
13867;BME280;7003;46.982;15.248;2023-06-26T02:06:55;97266.00;;;14.99;100.00
13867;BME280;7003;46.982;15.248;2023-06-26T02:09:24;97264.28;;;14.91;100.00
13867;BME280;7003;46.982;15.248;2023-06-26T02:11:51;97265.16;;;14.80;100.00
13867;BME280;7003;46.982;15.248;2023-06-26T02:14:19;97263.84;;;14.70;100.00
13867;BME280;7003;46.982;15.248;2023-06-26T02:16:47;97265.91;;;14.61;100.00
13867;BME280;7003;46.982;15.248;2023-06-26T02:19:14;97269.03;;;14.63;100.00
13867;BME280;7003;46.982;15.248;2023-06-26T02:21:47;97266.41;;;14.67;100.00
13867;BME280;7003;46.982;15.248;2023-06-26T02:24:15;97272.09;;;14.65;100.00
13867;BME280;7003;46.982;15.248;2023-06-26T02:26:44;97266.34;;;14.63;100.00
13867;BME280;7003;46.982;15.248;2023-06-26T02:29:14;97267.72;;;14.57;100.00
13867;BME280;7003;46.982;15.248;2023-06-26T02:31:44;97269.81;;;14.48;100.00
13867;BME280;7003;46.982;15.248;2023-06-26T02:34:14;97269.53;;;14.53;100.00
13867;BME280;7003;46.982;15.248;2023-06-26T02:36:42;97269.97;;;14.55;100.00
13867;BME280;7003;46.982;15.248;2023-06-26T02:39:09;97277.56;;;14.69;100.00
13867;BME280;7003;46.982;15.248;2023-06-26T02:41:37;97272.53;;;14.67;100.00
13867;BME280;7003;46.982;15.248;2023-06-26T02:44:06;97271.09;;;14.54;100.00
13867;BME280;7003;46.982;15.248;2023-06-26T02:46:35;97266.44;;;14.51;100.00
13867;BME280;7003;46.982;15.248;2023-06-26T02:49:03;97269.38;;;14.46;100.00
13867;BME280;7003;46.982;15.248;2023-06-26T02:51:33;97264.72;;;14.43;100.00
13867;BME280;7003;46.982;15.248;2023-06-26T02:54:01;97261.41;;;14.34;100.00
13867;BME280;7003;46.982;15.248;2023-06-26T02:56:31;97269.59;;;14.25;100.00
13867;BME280;7003;46.982;15.248;2023-06-26T02:58:59;97275.38;;;14.27;100.00
13867;BME280;7003;46.982;15.248;2023-06-26T03:01:28;97270.38;;;14.25;100.00
13867;BME280;7003;46.982;15.248;2023-06-26T03:03:56;97266.69;;;14.14;100.00
13867;BME280;7003;46.982;15.248;2023-06-26T03:06:29;97272.81;;;14.31;100.00
13867;BME280;7003;46.982;15.248;2023-06-26T03:08:58;97274.78;;;14.18;100.00
13867;BME280;7003;46.982;15.248;2023-06-26T03:11:28;97267.19;;;14.20;100.00
13867;BME280;7003;46.982;15.248;2023-06-26T03:13:57;97270.19;;;14.18;100.00
13867;BME280;7003;46.982;15.248;2023-06-26T03:16:33;97269.09;;;14.19;100.00
13867;BME280;7003;46.982;15.248;2023-06-26T03:19:02;97273.03;;;14.10;100.00
13867;BME280;7003;46.982;15.248;2023-06-26T03:21:32;97265.13;;;14.13;100.00
13867;BME280;7003;46.982;15.248;2023-06-26T03:24:02;97261.38;;;14.02;100.00
13867;BME280;7003;46.982;15.248;2023-06-26T03:26:32;97277.03;;;14.00;100.00
13867;BME280;7003;46.982;15.248;2023-06-26T03:29:01;97269.41;;;14.02;100.00
13867;BME280;7003;46.982;15.248;2023-06-26T03:31:30;97265.38;;;14.08;100.00
13867;BME280;7003;46.982;15.248;2023-06-26T03:33:58;97263.72;;;14.04;100.00
13867;BME280;7003;46.982;15.248;2023-06-26T03:36:26;97264.50;;;14.04;100.00
13867;BME280;7003;46.982;15.248;2023-06-26T03:38:54;97264.50;;;14.04;100.00
13867;BME280;7003;46.982;15.248;2023-06-26T03:41:24;97257.00;;;14.10;100.00
13867;BME280;7003;46.982;15.248;2023-06-26T03:43:56;97263.84;;;14.23;100.00
13867;BME280;7003;46.982;15.248;2023-06-26T03:46:26;97263.22;;;14.30;100.00
13867;BME280;7003;46.982;15.248;2023-06-26T03:48:56;97259.44;;;14.31;100.00
13867;BME280;7003;46.982;15.248;2023-06-26T03:51:23;97257.88;;;14.30;100.00
13867;BME280;7003;46.982;15.248;2023-06-26T03:53:52;97261.34;;;14.30;100.00
13867;BME280;7003;46.982;15.248;2023-06-26T03:56:20;97264.06;;;14.34;100.00
13867;BME280;7003;46.982;15.248;2023-06-26T03:58:50;97267.47;;;14.31;100.00
13867;BME280;7003;46.982;15.248;2023-06-26T04:01:18;97259.09;;;14.32;100.00
13867;BME280;7003;46.982;15.248;2023-06-26T04:03:48;97263.72;;;14.35;100.00
13867;BME280;7003;46.982;15.248;2023-06-26T04:06:16;97263.16;;;14.42;100.00
13867;BME280;7003;46.982;15.248;2023-06-26T04:08:44;97265.16;;;14.45;100.00
13867;BME280;7003;46.982;15.248;2023-06-26T04:11:14;97262.34;;;14.57;100.00
13867;BME280;7003;46.982;15.248;2023-06-26T04:13:42;97268.84;;;14.56;100.00
13867;BME280;7003;46.982;15.248;2023-06-26T04:16:14;97269.44;;;14.49;100.00
13867;BME280;7003;46.982;15.248;2023-06-26T04:18:43;97270.72;;;14.71;100.00
13867;BME280;7003;46.982;15.248;2023-06-26T04:21:13;97277.38;;;14.77;100.00
13867;BME280;7003;46.982;15.248;2023-06-26T04:23:41;97273.75;;;14.70;100.00
13867;BME280;7003;46.982;15.248;2023-06-26T04:26:10;97267.25;;;14.86;100.00
13867;BME280;7003;46.982;15.248;2023-06-26T04:28:42;97265.69;;;14.85;100.00
13867;BME280;7003;46.982;15.248;2023-06-26T04:31:10;97269.81;;;14.98;100.00
13867;BME280;7003;46.982;15.248;2023-06-26T04:33:42;97266.69;;;14.96;100.00
13867;BME280;7003;46.982;15.248;2023-06-26T04:36:10;97271.03;;;15.20;100.00
13867;BME280;7003;46.982;15.248;2023-06-26T04:38:38;97274.66;;;15.47;100.00
13867;BME280;7003;46.982;15.248;2023-06-26T04:41:07;97262.63;;;15.79;100.00
13867;BME280;7003;46.982;15.248;2023-06-26T04:43:35;97270.06;;;16.32;100.00
13867;BME280;7003;46.982;15.248;2023-06-26T04:46:06;97265.47;;;16.55;100.00
13867;BME280;7003;46.982;15.248;2023-06-26T04:48:35;97268.06;;;17.01;100.00
13867;BME280;7003;46.982;15.248;2023-06-26T04:51:05;97275.50;;;17.41;100.00
13867;BME280;7003;46.982;15.248;2023-06-26T04:53:36;97271.72;;;17.79;100.00
13867;BME280;7003;46.982;15.248;2023-06-26T04:56:05;97267.81;;;18.10;100.00
13867;BME280;7003;46.982;15.248;2023-06-26T04:58:32;97268.00;;;18.31;100.00
13867;BME280;7003;46.982;15.248;2023-06-26T05:01:05;97276.13;;;18.38;100.00
13867;BME280;7003;46.982;15.248;2023-06-26T05:03:37;97269.78;;;18.57;100.00
13867;BME280;7003;46.982;15.248;2023-06-26T05:06:07;97273.84;;;18.91;100.00
13867;BME280;7003;46.982;15.248;2023-06-26T05:08:37;97273.97;;;19.12;100.00
13867;BME280;7003;46.982;15.248;2023-06-26T05:11:11;97272.16;;;19.38;100.00
13867;BME280;7003;46.982;15.248;2023-06-26T05:13:40;97268.72;;;19.44;100.00
13867;BME280;7003;46.982;15.248;2023-06-26T05:16:11;97270.22;;;19.28;100.00
13867;BME280;7003;46.982;15.248;2023-06-26T05:18:39;97268.72;;;19.44;100.00
13867;BME280;7003;46.982;15.248;2023-06-26T05:21:09;97262.69;;;19.76;100.00
13867;BME280;7003;46.982;15.248;2023-06-26T05:23:37;97263.53;;;20.08;100.00
13867;BME280;7003;46.982;15.248;2023-06-26T05:26:05;97257.41;;;20.40;100.00
13867;BME280;7003;46.982;15.248;2023-06-26T05:28:34;97257.00;;;20.62;100.00
13867;BME280;7003;46.982;15.248;2023-06-26T05:31:02;97259.66;;;20.09;100.00
13867;BME280;7003;46.982;15.248;2023-06-26T05:33:31;97255.06;;;20.27;100.00
13867;BME280;7003;46.982;15.248;2023-06-26T05:36:08;97255.84;;;20.74;100.00
13867;BME280;7003;46.982;15.248;2023-06-26T05:38:37;97261.97;;;20.92;100.00
13867;BME280;7003;46.982;15.248;2023-06-26T05:41:05;97267.00;;;20.97;100.00
13867;BME280;7003;46.982;15.248;2023-06-26T05:43:37;97264.66;;;21.17;100.00
13867;BME280;7003;46.982;15.248;2023-06-26T05:46:07;97271.19;;;21.34;100.00
13867;BME280;7003;46.982;15.248;2023-06-26T05:48:35;97263.88;;;21.27;100.00
13867;BME280;7003;46.982;15.248;2023-06-26T05:51:05;97271.56;;;21.36;100.00
13867;BME280;7003;46.982;15.248;2023-06-26T05:53:36;97270.41;;;21.37;100.00
13867;BME280;7003;46.982;15.248;2023-06-26T05:56:06;97268.03;;;21.46;100.00
13867;BME280;7003;46.982;15.248;2023-06-26T05:58:34;97271.41;;;21.71;100.00
13867;BME280;7003;46.982;15.248;2023-06-26T06:01:04;97268.63;;;21.85;100.00
13867;BME280;7003;46.982;15.248;2023-06-26T06:03:34;97266.94;;;22.13;100.00
13867;BME280;7003;46.982;15.248;2023-06-26T06:06:02;97268.72;;;22.37;100.00
13867;BME280;7003;46.982;15.248;2023-06-26T06:08:30;97266.59;;;22.59;100.00
13867;BME280;7003;46.982;15.248;2023-06-26T06:11:00;97256.41;;;22.74;100.00
13867;BME280;7003;46.982;15.248;2023-06-26T06:13:30;97262.59;;;22.71;100.00
13867;BME280;7003;46.982;15.248;2023-06-26T06:16:00;97258.00;;;22.68;100.00
13867;BME280;7003;46.982;15.248;2023-06-26T06:18:29;97256.00;;;22.72;100.00
13867;BME280;7003;46.982;15.248;2023-06-26T06:20:59;97258.28;;;22.32;100.00
13867;BME280;7003;46.982;15.248;2023-06-26T06:23:27;97261.56;;;22.57;100.00
13867;BME280;7003;46.982;15.248;2023-06-26T06:25:56;97262.28;;;22.61;100.00
13867;BME280;7003;46.982;15.248;2023-06-26T06:28:28;97260.16;;;22.87;100.00
13867;BME280;7003;46.982;15.248;2023-06-26T06:30:59;97255.13;;;22.85;100.00
13867;BME280;7003;46.982;15.248;2023-06-26T06:33:29;97262.25;;;23.10;100.00
13867;BME280;7003;46.982;15.248;2023-06-26T06:35:59;97254.31;;;23.26;100.00
13867;BME280;7003;46.982;15.248;2023-06-26T06:38:27;97256.53;;;23.34;100.00
13867;BME280;7003;46.982;15.248;2023-06-26T06:40:57;97246.72;;;23.10;100.00
13867;BME280;7003;46.982;15.248;2023-06-26T06:43:24;97248.59;;;23.17;100.00
13867;BME280;7003;46.982;15.248;2023-06-26T06:45:53;97255.25;;;23.12;100.00
13867;BME280;7003;46.982;15.248;2023-06-26T06:48:23;97250.22;;;23.45;100.00
13867;BME280;7003;46.982;15.248;2023-06-26T06:50:53;97254.75;;;23.55;100.00
13867;BME280;7003;46.982;15.248;2023-06-26T06:53:22;97252.50;;;23.50;100.00
13867;BME280;7003;46.982;15.248;2023-06-26T06:55:50;97256.00;;;23.50;100.00
13867;BME280;7003;46.982;15.248;2023-06-26T06:58:18;97251.91;;;23.65;100.00
13867;BME280;7003;46.982;15.248;2023-06-26T07:00:48;97242.19;;;23.68;100.00
13867;BME280;7003;46.982;15.248;2023-06-26T07:03:21;97248.94;;;24.10;100.00
13867;BME280;7003;46.982;15.248;2023-06-26T07:05:52;97247.78;;;23.84;100.00
13867;BME280;7003;46.982;15.248;2023-06-26T07:08:19;97243.34;;;23.97;100.00
13867;BME280;7003;46.982;15.248;2023-06-26T07:10:49;97246.44;;;23.96;100.00
13867;BME280;7003;46.982;15.248;2023-06-26T07:13:16;97241.69;;;24.03;100.00
13867;BME280;7003;46.982;15.248;2023-06-26T07:15:45;97242.88;;;24.52;100.00
13867;BME280;7003;46.982;15.248;2023-06-26T07:18:13;97251.16;;;24.69;100.00
13867;BME280;7003;46.982;15.248;2023-06-26T07:20:43;97247.94;;;25.17;100.00
13867;BME280;7003;46.982;15.248;2023-06-26T07:23:11;97238.91;;;25.23;100.00
13867;BME280;7003;46.982;15.248;2023-06-26T07:25:40;97242.13;;;25.38;100.00
13867;BME280;7003;46.982;15.248;2023-06-26T07:28:11;97236.09;;;25.27;89.86
13867;BME280;7003;46.982;15.248;2023-06-26T07:30:38;97238.00;;;25.30;88.17
13867;BME280;7003;46.982;15.248;2023-06-26T07:33:08;97232.25;;;25.44;92.22
13867;BME280;7003;46.982;15.248;2023-06-26T07:35:36;97241.25;;;25.97;87.16
13867;BME280;7003;46.982;15.248;2023-06-26T07:38:05;97235.44;;;25.79;79.99
13867;BME280;7003;46.982;15.248;2023-06-26T07:40:34;97230.44;;;25.38;91.25
13867;BME280;7003;46.982;15.248;2023-06-26T07:43:02;97231.69;;;25.53;93.12
13867;BME280;7003;46.982;15.248;2023-06-26T07:45:29;97235.97;;;25.34;87.33
13867;BME280;7003;46.982;15.248;2023-06-26T07:48:00;97242.59;;;25.33;89.07
13867;BME280;7003;46.982;15.248;2023-06-26T07:50:27;97238.75;;;25.70;91.51
13867;BME280;7003;46.982;15.248;2023-06-26T07:52:55;97240.47;;;25.80;92.77
13867;BME280;7003;46.982;15.248;2023-06-26T07:55:26;97235.13;;;25.93;90.55
13867;BME280;7003;46.982;15.248;2023-06-26T07:57:54;97236.50;;;26.01;78.64
13867;BME280;7003;46.982;15.248;2023-06-26T08:00:21;97233.69;;;26.21;80.58
13867;BME280;7003;46.982;15.248;2023-06-26T08:02:51;97227.19;;;26.79;81.97
13867;BME280;7003;46.982;15.248;2023-06-26T08:05:21;97240.75;;;26.99;82.61
13867;BME280;7003;46.982;15.248;2023-06-26T08:07:48;97226.47;;;26.63;82.35
13867;BME280;7003;46.982;15.248;2023-06-26T08:10:16;97235.88;;;27.19;79.25
13867;BME280;7003;46.982;15.248;2023-06-26T08:12:45;97231.56;;;27.64;72.48
13867;BME280;7003;46.982;15.248;2023-06-26T08:15:12;97239.41;;;27.74;73.42
13867;BME280;7003;46.982;15.248;2023-06-26T08:17:42;97236.91;;;27.80;72.13
13867;BME280;7003;46.982;15.248;2023-06-26T08:20:13;97233.84;;;27.90;63.08
13867;BME280;7003;46.982;15.248;2023-06-26T08:22:41;97232.25;;;28.18;69.22
13867;BME280;7003;46.982;15.248;2023-06-26T08:25:09;97229.03;;;28.45;68.01
13867;BME280;7003;46.982;15.248;2023-06-26T08:27:37;97224.69;;;28.10;68.11
13867;BME280;7003;46.982;15.248;2023-06-26T08:30:08;97230.69;;;28.05;69.31
13867;BME280;7003;46.982;15.248;2023-06-26T08:32:39;97237.38;;;28.29;65.48
13867;BME280;7003;46.982;15.248;2023-06-26T08:35:07;97233.97;;;28.12;60.07
13867;BME280;7003;46.982;15.248;2023-06-26T08:37:38;97233.22;;;27.86;66.59
13867;BME280;7003;46.982;15.248;2023-06-26T08:40:09;97230.16;;;27.84;66.57
13867;BME280;7003;46.982;15.248;2023-06-26T08:42:37;97233.66;;;28.23;63.90
13867;BME280;7003;46.982;15.248;2023-06-26T08:45:05;97230.41;;;28.62;64.48
13867;BME280;7003;46.982;15.248;2023-06-26T08:47:37;97225.34;;;29.08;59.09
13867;BME280;7003;46.982;15.248;2023-06-26T08:50:08;97217.13;;;29.08;60.89
13867;BME280;7003;46.982;15.248;2023-06-26T08:52:43;97221.97;;;28.69;65.46
13867;BME280;7003;46.982;15.248;2023-06-26T08:55:15;97221.25;;;28.91;67.58
13867;BME280;7003;46.982;15.248;2023-06-26T08:57:43;97217.31;;;28.92;58.74
13867;BME280;7003;46.982;15.248;2023-06-26T09:00:12;97222.28;;;29.06;58.12
13867;BME280;7003;46.982;15.248;2023-06-26T09:02:42;97216.19;;;29.45;57.44
13867;BME280;7003;46.982;15.248;2023-06-26T09:05:13;97216.66;;;29.53;57.02
13867;BME280;7003;46.982;15.248;2023-06-26T09:07:41;97211.78;;;29.48;59.36
13867;BME280;7003;46.982;15.248;2023-06-26T09:10:09;97207.34;;;29.72;53.26
13867;BME280;7003;46.982;15.248;2023-06-26T09:12:37;97203.97;;;29.99;53.24
13867;BME280;7003;46.982;15.248;2023-06-26T09:15:05;97205.16;;;29.67;52.05
13867;BME280;7003;46.982;15.248;2023-06-26T09:17:39;97203.75;;;29.32;53.43
13867;BME280;7003;46.982;15.248;2023-06-26T09:20:10;97206.00;;;29.02;58.65
13867;BME280;7003;46.982;15.248;2023-06-26T09:22:41;97189.38;;;28.03;53.05
13867;BME280;7003;46.982;15.248;2023-06-26T09:25:12;97201.06;;;28.76;55.83
13867;BME280;7003;46.982;15.248;2023-06-26T09:27:43;97198.47;;;29.37;54.31
13867;BME280;7003;46.982;15.248;2023-06-26T09:30:12;97189.16;;;29.35;51.33
13867;BME280;7003;46.982;15.248;2023-06-26T09:32:44;97190.31;;;28.68;47.70
13867;BME280;7003;46.982;15.248;2023-06-26T09:35:15;97192.75;;;29.01;51.45
13867;BME280;7003;46.982;15.248;2023-06-26T09:37:43;97186.41;;;29.13;54.14
13867;BME280;7003;46.982;15.248;2023-06-26T09:40:11;97184.31;;;29.17;54.27
13867;BME280;7003;46.982;15.248;2023-06-26T09:42:41;97184.41;;;29.88;53.53
13867;BME280;7003;46.982;15.248;2023-06-26T09:45:18;97185.13;;;30.19;47.11
13867;BME280;7003;46.982;15.248;2023-06-26T09:47:46;97185.44;;;30.21;44.31
13867;BME280;7003;46.982;15.248;2023-06-26T09:50:24;97179.00;;;30.06;47.45
13867;BME280;7003;46.982;15.248;2023-06-26T09:52:53;97176.03;;;29.30;49.94
13867;BME280;7003;46.982;15.248;2023-06-26T09:55:20;97170.16;;;28.41;49.01
13867;BME280;7003;46.982;15.248;2023-06-26T09:57:49;97176.31;;;28.19;51.33
13867;BME280;7003;46.982;15.248;2023-06-26T10:00:18;97168.25;;;27.90;57.68
13867;BME280;7003;46.982;15.248;2023-06-26T10:02:46;97171.28;;;28.30;55.88
13867;BME280;7003;46.982;15.248;2023-06-26T10:05:13;97174.06;;;28.18;54.03
13867;BME280;7003;46.982;15.248;2023-06-26T10:07:42;97164.59;;;28.79;61.78
13867;BME280;7003;46.982;15.248;2023-06-26T10:10:13;97165.16;;;28.61;53.99
13867;BME280;7003;46.982;15.248;2023-06-26T10:12:42;97159.91;;;28.32;60.69
13867;BME280;7003;46.982;15.248;2023-06-26T10:15:14;97155.28;;;28.76;53.74
13867;BME280;7003;46.982;15.248;2023-06-26T10:17:44;97162.81;;;28.85;56.15
13867;BME280;7003;46.982;15.248;2023-06-26T10:20:14;97160.81;;;29.07;51.82
13867;BME280;7003;46.982;15.248;2023-06-26T10:22:45;97154.06;;;28.99;50.18
13867;BME280;7003;46.982;15.248;2023-06-26T10:25:18;97159.09;;;29.22;54.53
13867;BME280;7003;46.982;15.248;2023-06-26T10:27:51;97147.41;;;29.31;48.94
13867;BME280;7003;46.982;15.248;2023-06-26T10:30:22;97144.75;;;29.71;47.11
13867;BME280;7003;46.982;15.248;2023-06-26T10:32:51;97143.09;;;30.50;48.88
13867;BME280;7003;46.982;15.248;2023-06-26T10:35:19;97139.69;;;30.09;47.13
13867;BME280;7003;46.982;15.248;2023-06-26T10:37:49;97140.06;;;29.80;45.51
13867;BME280;7003;46.982;15.248;2023-06-26T10:40:21;97143.53;;;30.39;49.74
13867;BME280;7003;46.982;15.248;2023-06-26T10:42:49;97142.78;;;31.12;45.98
13867;BME280;7003;46.982;15.248;2023-06-26T10:45:20;97143.41;;;30.43;47.62
13867;BME280;7003;46.982;15.248;2023-06-26T10:47:52;97135.59;;;31.14;48.05
13867;BME280;7003;46.982;15.248;2023-06-26T10:50:20;97135.34;;;31.45;45.67
13867;BME280;7003;46.982;15.248;2023-06-26T10:53:10;97129.38;;;30.95;43.13
13867;BME280;7003;46.982;15.248;2023-06-26T10:55:47;97126.63;;;30.68;42.68
13867;BME280;7003;46.982;15.248;2023-06-26T10:58:31;97135.91;;;30.43;48.49
13867;BME280;7003;46.982;15.248;2023-06-26T11:01:17;97137.84;;;29.66;46.26
13867;BME280;7003;46.982;15.248;2023-06-26T11:03:49;97140.16;;;29.68;44.44
13867;BME280;7003;46.982;15.248;2023-06-26T11:06:19;97129.91;;;29.50;46.69
13867;BME280;7003;46.982;15.248;2023-06-26T11:08:52;97131.00;;;29.62;42.44
13867;BME280;7003;46.982;15.248;2023-06-26T11:11:21;97122.22;;;29.85;47.76
13867;BME280;7003;46.982;15.248;2023-06-26T11:13:49;97126.03;;;29.38;42.12
13867;BME280;7003;46.982;15.248;2023-06-26T11:16:17;97123.69;;;29.68;41.36
13867;BME280;7003;46.982;15.248;2023-06-26T11:18:45;97124.06;;;29.79;44.50
13867;BME280;7003;46.982;15.248;2023-06-26T11:21:15;97116.72;;;29.76;44.35
13867;BME280;7003;46.982;15.248;2023-06-26T11:23:44;97118.63;;;29.97;42.98
13867;BME280;7003;46.982;15.248;2023-06-26T11:26:15;97124.53;;;29.87;46.81
13867;BME280;7003;46.982;15.248;2023-06-26T11:28:51;97119.88;;;29.56;47.63
13867;BME280;7003;46.982;15.248;2023-06-26T11:31:30;97115.84;;;29.88;45.22
13867;BME280;7003;46.982;15.248;2023-06-26T11:34:02;97114.44;;;30.69;45.15
13867;BME280;7003;46.982;15.248;2023-06-26T11:36:30;97113.03;;;30.83;48.24
13867;BME280;7003;46.982;15.248;2023-06-26T11:39:00;97108.75;;;31.18;42.13
13867;BME280;7003;46.982;15.248;2023-06-26T11:41:31;97107.72;;;31.49;40.04
13867;BME280;7003;46.982;15.248;2023-06-26T11:44:01;97108.44;;;31.58;42.00
13867;BME280;7003;46.982;15.248;2023-06-26T11:46:30;97109.34;;;31.55;42.28
13867;BME280;7003;46.982;15.248;2023-06-26T11:49:03;97110.56;;;31.96;41.57
13867;BME280;7003;46.982;15.248;2023-06-26T11:51:34;97101.72;;;32.16;40.21
13867;BME280;7003;46.982;15.248;2023-06-26T11:54:02;97105.88;;;31.88;40.47
13867;BME280;7003;46.982;15.248;2023-06-26T11:56:34;97107.00;;;32.05;40.38
13867;BME280;7003;46.982;15.248;2023-06-26T11:59:02;97097.97;;;32.28;38.66
13867;BME280;7003;46.982;15.248;2023-06-26T12:01:33;97101.56;;;32.58;39.03
13867;BME280;7003;46.982;15.248;2023-06-26T12:04:03;97109.91;;;32.01;38.24
13867;BME280;7003;46.982;15.248;2023-06-26T12:06:31;97104.84;;;32.47;39.72
13867;BME280;7003;46.982;15.248;2023-06-26T12:09:01;97100.25;;;32.30;39.21
13867;BME280;7003;46.982;15.248;2023-06-26T12:11:37;97104.13;;;32.23;44.67
13867;BME280;7003;46.982;15.248;2023-06-26T12:14:05;97095.38;;;32.01;43.35
13867;BME280;7003;46.982;15.248;2023-06-26T12:16:36;97094.38;;;31.56;45.33
13867;BME280;7003;46.982;15.248;2023-06-26T12:19:06;97091.47;;;32.17;44.66
13867;BME280;7003;46.982;15.248;2023-06-26T12:21:47;97089.53;;;32.32;40.99
13867;BME280;7003;46.982;15.248;2023-06-26T12:24:22;97099.13;;;31.89;40.46
13867;BME280;7003;46.982;15.248;2023-06-26T12:26:53;97091.53;;;31.51;44.06
13867;BME280;7003;46.982;15.248;2023-06-26T12:29:29;97086.53;;;31.31;40.06
13867;BME280;7003;46.982;15.248;2023-06-26T12:32:00;97084.41;;;30.66;43.18
13867;BME280;7003;46.982;15.248;2023-06-26T12:34:30;97088.63;;;30.94;43.44
13867;BME280;7003;46.982;15.248;2023-06-26T12:37:01;97080.03;;;31.19;44.35
13867;BME280;7003;46.982;15.248;2023-06-26T12:39:30;97087.47;;;30.58;43.21
13867;BME280;7003;46.982;15.248;2023-06-26T12:42:17;97081.16;;;30.85;44.95
13867;BME280;7003;46.982;15.248;2023-06-26T12:44:45;97078.09;;;30.92;43.66
13867;BME280;7003;46.982;15.248;2023-06-26T12:47:14;97075.25;;;31.29;50.13
13867;BME280;7003;46.982;15.248;2023-06-26T12:49:45;97072.69;;;31.25;47.33
13867;BME280;7003;46.982;15.248;2023-06-26T12:52:18;97068.69;;;31.92;44.96
13867;BME280;7003;46.982;15.248;2023-06-26T12:54:51;97072.41;;;31.89;47.02
13867;BME280;7003;46.982;15.248;2023-06-26T12:57:20;97070.81;;;30.62;42.54
13867;BME280;7003;46.982;15.248;2023-06-26T12:59:52;97072.53;;;30.50;48.57
13867;BME280;7003;46.982;15.248;2023-06-26T13:02:19;97072.44;;;30.96;50.51
13867;BME280;7003;46.982;15.248;2023-06-26T13:04:47;97067.53;;;31.00;45.48
13867;BME280;7003;46.982;15.248;2023-06-26T13:07:17;97071.91;;;30.74;47.37
13867;BME280;7003;46.982;15.248;2023-06-26T13:09:47;97066.81;;;30.90;45.86